createdAt,value
2019-04-02T00:02:30.960Z,31.40
2019-04-02T00:08:01.919Z,31.40
2019-04-02T00:10:28.762Z,31.40
2019-04-02T00:15:48.649Z,31.40
2019-04-02T00:18:18.847Z,31.30
2019-04-02T00:20:49.391Z,31.30
2019-04-02T00:23:16.975Z,31.30
2019-04-02T00:25:50.132Z,31.20
2019-04-02T00:28:19.082Z,31.20
2019-04-02T00:30:49.097Z,31.20
2019-04-02T00:33:16.242Z,31.30
2019-04-02T00:35:46.037Z,31.30
2019-04-02T00:38:19.821Z,31.30
2019-04-02T00:40:45.247Z,31.30
2019-04-02T00:43:15.406Z,31.30
2019-04-02T00:45:44.188Z,31.30
2019-04-02T00:48:11.375Z,31.20
2019-04-02T00:50:38.486Z,31.30
2019-04-02T00:53:08.443Z,31.30
2019-04-02T00:55:37.168Z,31.20
2019-04-02T00:58:13.049Z,31.20
2019-04-02T01:00:43.421Z,31.20
2019-04-02T01:03:12.207Z,31.20
2019-04-02T01:05:39.540Z,31.20
2019-04-02T01:08:16.226Z,31.20
2019-04-02T01:10:43.410Z,31.20
2019-04-02T01:13:11.789Z,31.20
2019-04-02T01:15:41.802Z,31.20
2019-04-02T01:18:12.194Z,31.20
2019-04-02T01:20:39.248Z,31.10
2019-04-02T01:23:06.536Z,31.10
2019-04-02T01:25:33.677Z,31.10
2019-04-02T01:28:13.380Z,31.10
2019-04-02T01:30:49.374Z,31.10
2019-04-02T01:33:21.555Z,31.10
2019-04-02T01:35:47.145Z,31.10
2019-04-02T01:38:52.226Z,31.10
2019-04-02T01:41:10.132Z,31.10
2019-04-02T01:43:38.474Z,31.10
2019-04-02T01:46:11.749Z,31.00
2019-04-02T01:48:39.081Z,31.00
2019-04-02T01:52:41.512Z,30.90
2019-04-02T01:53:52.946Z,30.90
2019-04-02T01:59:11.419Z,31.00
2019-04-02T02:01:38.646Z,31.00
2019-04-02T02:04:05.843Z,31.00
2019-04-02T02:06:43.599Z,30.90
2019-04-02T02:12:11.652Z,30.90
2019-04-02T02:14:38.806Z,30.80
2019-04-02T02:17:11.760Z,30.80
2019-04-02T02:19:38.897Z,30.80
2019-04-02T02:22:06.021Z,30.80
2019-04-02T02:24:33.271Z,30.80
2019-04-02T02:27:00.526Z,30.80
2019-04-02T02:29:27.706Z,30.80
2019-04-02T02:31:55.095Z,30.80
2019-04-02T02:34:45.235Z,30.90
2019-04-02T02:37:05.921Z,30.80
2019-04-02T02:39:33.070Z,30.90
2019-04-02T02:42:02.033Z,30.80
2019-04-02T02:44:29.244Z,30.80
2019-04-02T03:01:38.578Z,30.70
2019-04-02T03:04:07.614Z,30.60
2019-04-02T03:06:35.217Z,30.50
2019-04-02T03:09:03.694Z,30.60
2019-04-02T03:11:35.242Z,30.60
2019-04-02T03:14:07.325Z,30.50
2019-04-02T03:22:13.222Z,30.40
2019-04-02T03:24:51.001Z,30.40
2019-04-02T03:27:18.554Z,30.50
2019-04-02T03:29:45.705Z,30.50
2019-04-02T03:32:13.387Z,31.10
2019-04-02T03:40:14.724Z,30.50
2019-04-02T03:42:41.908Z,30.50
2019-04-02T03:45:12.834Z,30.60
2019-04-02T03:47:39.890Z,30.60
2019-04-02T03:50:07.280Z,30.60
2019-04-02T03:52:34.706Z,30.50
2019-04-02T03:55:02.281Z,30.60
2019-04-02T03:57:35.649Z,30.50
2019-04-02T04:00:03.178Z,30.60
2019-04-02T04:02:31.387Z,30.60
2019-04-02T04:06:37.889Z,30.50
2019-04-02T04:07:49.203Z,30.50
2019-04-02T04:10:16.360Z,30.50
2019-04-02T04:12:43.854Z,30.60
2019-04-02T04:15:11.088Z,30.60
2019-04-02T04:17:38.411Z,30.60
2019-04-02T04:20:07.326Z,30.60
2019-04-02T04:22:34.571Z,30.60
2019-04-02T04:25:02.063Z,30.60
2019-04-02T04:27:29.339Z,30.60
2019-04-02T04:29:56.784Z,30.50
2019-04-02T04:32:24.025Z,30.50
2019-04-02T04:34:53.049Z,30.60
2019-04-02T04:37:22.010Z,30.60
2019-04-02T04:40:20.077Z,30.60
2019-04-02T04:56:50.984Z,30.50
2019-04-02T05:02:12.377Z,30.50
2019-04-02T05:10:23.602Z,30.50
2019-04-02T05:12:58.602Z,30.70
2019-04-02T05:18:45.562Z,30.90
2019-04-02T05:24:08.526Z,30.40
2019-04-02T05:26:35.474Z,30.30
2019-04-02T05:29:07.202Z,30.40
2019-04-02T05:31:36.960Z,30.30
2019-04-02T05:37:01.987Z,30.40
2019-04-02T05:39:29.094Z,30.30
2019-04-02T05:42:07.107Z,30.20
2019-04-02T05:44:29.301Z,30.30
2019-04-02T05:46:58.427Z,30.30
2019-04-02T05:49:30.412Z,30.30
2019-04-02T05:51:57.562Z,30.20
2019-04-02T05:54:49.786Z,30.30
2019-04-02T05:57:15.738Z,30.30
2019-04-02T06:02:37.149Z,30.30
2019-04-02T06:05:04.636Z,30.40
2019-04-02T06:07:31.729Z,30.40
2019-04-02T06:10:00.270Z,30.40
2019-04-02T06:21:38.297Z,30.20
2019-04-02T06:29:55.688Z,30.20
2019-04-02T06:35:14.934Z,30.30
2019-04-02T06:37:43.084Z,30.20
2019-04-02T06:40:12.762Z,30.20
2019-04-02T06:45:20.890Z,30.10
2019-04-02T06:48:09.164Z,30.10
2019-04-02T06:56:37.887Z,30.20
2019-04-02T07:01:52.157Z,30.20
2019-04-02T07:04:19.442Z,30.20
2019-04-02T07:06:57.456Z,30.10
2019-04-02T07:09:20.992Z,30.20
2019-04-02T07:11:48.749Z,30.20
2019-04-02T07:14:15.992Z,30.20
2019-04-02T07:16:43.544Z,30.20
2019-04-02T07:19:10.703Z,30.20
2019-04-02T07:21:40.921Z,30.30
2019-04-02T07:24:21.603Z,30.40
2019-04-02T07:26:59.455Z,30.40
2019-04-02T07:29:26.628Z,30.30
2019-04-02T07:32:13.903Z,30.30
2019-04-02T07:37:30.436Z,30.30
2019-04-02T07:39:58.948Z,30.20
2019-04-02T07:42:26.091Z,30.30
2019-04-02T07:44:53.624Z,30.30
2019-04-02T07:50:28.937Z,30.60
2019-04-02T07:53:04.977Z,30.40
2019-04-02T07:55:33.398Z,30.40
2019-04-02T07:58:00.581Z,30.50
2019-04-02T08:00:38.454Z,30.80
2019-04-02T08:03:07.362Z,30.90
2019-04-02T08:06:08.700Z,30.30
2019-04-02T08:08:12.113Z,30.10
2019-04-02T08:10:39.395Z,30.30
2019-04-02T08:13:06.714Z,30.40
2019-04-02T08:18:33.935Z,30.90
2019-04-02T08:21:01.098Z,31.00
2019-04-02T08:23:40.203Z,30.80
2019-04-02T08:26:07.315Z,30.70
2019-04-02T08:28:40.208Z,30.70
2019-04-02T08:31:07.596Z,30.70
2019-04-02T08:33:40.847Z,30.60
2019-04-02T08:36:09.740Z,30.70
2019-04-02T08:38:39.278Z,30.70
2019-04-02T08:41:05.715Z,30.90
2019-04-02T08:43:34.695Z,30.90
2019-04-02T08:46:01.949Z,31.00
2019-04-02T08:48:29.278Z,31.10
2019-04-02T08:50:58.855Z,31.00
2019-04-02T08:53:28.058Z,31.10
2019-04-02T08:55:55.337Z,31.30
2019-04-02T08:58:25.012Z,31.60
2019-04-02T09:00:59.963Z,31.60
2019-04-02T09:03:20.346Z,31.50
2019-04-02T09:05:47.777Z,31.60
2019-04-02T09:08:15.014Z,31.40
2019-04-02T09:10:42.176Z,31.40
2019-04-02T09:13:10.503Z,31.50
2019-04-02T09:15:40.217Z,31.40
2019-04-02T09:18:07.350Z,31.30
2019-04-02T09:20:34.623Z,31.50
2019-04-02T09:23:01.842Z,31.30
2019-04-02T09:25:47.219Z,31.50
2019-04-02T09:28:14.528Z,31.50
2019-04-02T09:30:41.736Z,31.50
2019-04-02T09:33:09.258Z,31.50
2019-04-02T09:35:36.472Z,31.50
2019-04-02T09:38:03.811Z,31.60
2019-04-02T09:40:32.490Z,31.70
2019-04-02T09:43:00.012Z,31.70
2019-04-02T09:45:27.155Z,31.60
2019-04-02T09:47:54.299Z,31.80
2019-04-02T09:50:21.417Z,32.40
2019-04-02T09:52:48.563Z,31.80
2019-04-02T09:55:15.808Z,31.70
2019-04-02T09:57:44.739Z,31.80
2019-04-02T10:00:11.900Z,31.70
2019-04-02T10:02:39.283Z,31.70
2019-04-02T10:05:06.465Z,31.70
2019-04-02T10:07:33.715Z,31.70
2019-04-02T10:10:00.769Z,31.60
2019-04-02T10:12:30.881Z,31.70
2019-04-02T10:14:56.796Z,31.60
2019-04-02T10:17:24.057Z,31.60
2019-04-02T10:19:51.309Z,31.60
2019-04-02T10:22:18.505Z,31.50
2019-04-02T10:24:45.885Z,32.30
2019-04-02T10:27:14.808Z,31.70
2019-04-02T10:29:42.135Z,31.80
2019-04-02T10:35:10.769Z,32.30
2019-04-02T10:37:37.988Z,31.90
2019-04-02T10:40:05.142Z,32.00
2019-04-02T10:42:32.431Z,32.20
2019-04-02T10:44:59.700Z,32.10
2019-04-02T10:47:28.737Z,32.10
2019-04-02T10:49:55.927Z,31.90
2019-04-02T10:52:23.087Z,31.80
2019-04-02T10:57:31.923Z,31.80
2019-04-02T11:00:02.220Z,31.60
2019-04-02T11:02:30.992Z,31.70
2019-04-02T11:05:02.589Z,31.70
2019-04-02T11:07:27.582Z,31.70
2019-04-02T11:09:57.495Z,31.60
2019-04-02T11:12:24.915Z,31.70
2019-04-02T11:14:59.675Z,31.60
2019-04-02T11:17:26.865Z,31.60
2019-04-02T11:19:55.466Z,31.70
2019-04-02T11:22:26.042Z,31.60
2019-04-02T11:24:54.999Z,31.50
2019-04-02T11:27:22.333Z,31.60
2019-04-02T11:29:49.811Z,31.60
2019-04-02T11:32:17.632Z,31.90
2019-04-02T11:34:58.432Z,31.80
2019-04-02T11:37:25.897Z,31.80
2019-04-02T11:39:53.103Z,31.60
2019-04-02T11:42:20.240Z,31.60
2019-04-02T11:44:49.954Z,31.70
2019-04-02T11:47:16.768Z,31.70
2019-04-02T11:49:48.829Z,31.60
2019-04-02T11:52:18.206Z,31.60
2019-04-02T11:54:45.634Z,31.60
2019-04-02T11:57:14.660Z,31.60
2019-04-02T11:59:45.246Z,31.70
2019-04-02T12:02:15.060Z,31.50
2019-04-02T12:04:42.294Z,31.70
2019-04-02T12:07:10.221Z,31.60
2019-04-02T12:09:45.055Z,31.50
2019-04-02T12:12:08.927Z,31.50
2019-04-02T12:17:31.522Z,32.00
2019-04-02T12:19:58.797Z,31.90
2019-04-02T12:22:25.954Z,32.00
2019-04-02T12:27:48.360Z,31.90
2019-04-02T12:30:17.100Z,31.90
2019-04-02T12:33:08.391Z,32.00
2019-04-02T12:35:28.216Z,31.90
2019-04-02T12:37:55.347Z,31.90
2019-04-02T12:40:24.218Z,32.00
2019-04-02T12:43:22.008Z,32.10
2019-04-02T12:45:38.016Z,32.00
2019-04-02T12:48:05.550Z,31.80
2019-04-02T12:50:32.793Z,31.70
2019-04-02T12:53:00.044Z,31.70
2019-04-02T12:55:30.143Z,31.70
2019-04-02T12:57:57.310Z,31.60
2019-04-02T13:00:24.714Z,31.70
2019-04-02T13:02:52.326Z,31.80
2019-04-02T13:05:19.494Z,31.70
2019-04-02T13:08:02.418Z,31.80
2019-04-02T13:10:39.079Z,31.80
2019-04-02T13:13:06.472Z,31.80
2019-04-02T13:15:33.888Z,31.70
2019-04-02T13:18:01.273Z,31.70
2019-04-02T13:20:28.571Z,31.70
2019-04-02T13:22:57.552Z,31.70
2019-04-02T13:28:15.843Z,31.60
2019-04-02T13:30:43.053Z,31.70
2019-04-02T13:33:12.166Z,31.60
2019-04-02T13:35:39.236Z,31.70
2019-04-02T13:38:06.317Z,31.80
2019-04-02T13:43:37.818Z,31.70
2019-04-02T13:46:22.987Z,31.70
2019-04-02T13:48:52.383Z,31.70
2019-04-02T13:51:19.677Z,31.60
2019-04-02T13:53:46.724Z,31.70
2019-04-02T13:56:14.046Z,31.70
2019-04-02T13:58:41.546Z,31.60
2019-04-02T14:01:08.781Z,31.70
2019-04-02T14:03:41.466Z,31.70
2019-04-02T14:06:08.650Z,31.60
2019-04-02T14:08:39.277Z,31.60
2019-04-02T14:11:11.583Z,31.50
2019-04-02T14:13:38.800Z,32.10
2019-04-02T14:16:06.089Z,31.60
2019-04-02T14:18:33.186Z,31.50
2019-04-02T14:21:00.461Z,31.60
2019-04-02T14:26:18.923Z,31.50
2019-04-02T14:28:48.698Z,31.60
2019-04-02T14:31:17.594Z,31.60
2019-04-02T14:33:45.957Z,31.50
2019-04-02T14:36:28.184Z,31.50
2019-04-02T14:38:55.344Z,31.60
2019-04-02T14:41:22.984Z,31.60
2019-04-02T14:43:50.135Z,31.70
2019-04-02T14:46:21.135Z,31.60
2019-04-02T14:48:48.392Z,31.10
2019-04-02T14:51:15.512Z,31.20
2019-04-02T14:53:44.292Z,31.10
2019-04-02T14:56:11.552Z,31.20
2019-04-02T15:01:13.103Z,31.20
2019-04-02T15:03:40.509Z,31.80
2019-04-02T15:06:07.845Z,32.10
2019-04-02T15:11:21.776Z,32.30
2019-04-02T15:13:48.944Z,32.40
2019-04-02T15:16:16.130Z,32.50
2019-04-02T15:18:43.446Z,32.40
2019-04-02T15:21:11.113Z,32.40
2019-04-02T15:23:39.035Z,32.40
2019-04-02T15:26:08.977Z,32.40
2019-04-02T15:28:37.176Z,32.30
2019-04-02T15:31:04.036Z,32.30
2019-04-02T15:33:31.162Z,32.30
2019-04-02T15:35:58.362Z,32.30
2019-04-02T15:38:28.365Z,32.20
2019-04-02T15:40:55.565Z,32.30
2019-04-02T15:43:22.795Z,32.20
2019-04-02T15:45:52.900Z,32.20
2019-04-02T15:48:20.161Z,32.10
2019-04-02T15:50:47.765Z,32.00
2019-04-02T15:53:15.300Z,31.90
2019-04-02T15:55:42.524Z,31.90
2019-04-02T15:58:09.629Z,31.80
2019-04-02T16:00:36.715Z,31.70
2019-04-02T16:03:14.781Z,31.80
2019-04-02T16:05:35.554Z,31.80
2019-04-02T16:08:02.912Z,31.80
2019-04-02T16:10:31.770Z,31.80
2019-04-02T16:12:59.347Z,31.70
2019-04-02T16:15:33.969Z,31.70
2019-04-02T16:18:24.460Z,31.70
2019-04-02T16:20:34.400Z,31.70
2019-04-02T16:23:11.418Z,31.70
2019-04-02T16:25:38.414Z,31.70
2019-04-02T16:28:08.829Z,31.80
2019-04-02T16:30:36.042Z,31.80
2019-04-02T16:33:03.213Z,31.80
2019-04-02T16:35:30.308Z,31.80
2019-04-02T16:37:59.014Z,31.90
2019-04-02T16:40:32.041Z,31.90
2019-04-02T16:43:05.497Z,32.00
2019-04-02T16:45:31.192Z,31.90
2019-04-02T16:47:58.324Z,31.80
2019-04-02T16:50:25.452Z,31.80
2019-04-02T16:53:09.129Z,31.80
2019-04-02T16:55:54.987Z,32.30
2019-04-02T16:58:22.584Z,31.90
2019-04-02T17:00:49.802Z,32.10
2019-04-02T17:03:17.686Z,31.90
2019-04-02T17:05:44.987Z,31.90
2019-04-02T17:08:12.102Z,31.90
2019-04-02T17:10:46.207Z,31.90
2019-04-02T17:13:13.484Z,31.90
2019-04-02T17:15:42.263Z,31.90
2019-04-02T17:18:13.749Z,31.90
2019-04-02T17:20:43.127Z,31.80
2019-04-02T17:23:13.579Z,31.90
2019-04-02T17:25:41.027Z,31.90
2019-04-02T17:28:08.148Z,31.90
2019-04-02T17:30:36.358Z,31.90
2019-04-02T17:33:08.071Z,32.10
2019-04-02T17:35:35.966Z,32.10
2019-04-02T17:38:12.797Z,32.10
2019-04-02T17:40:40.475Z,32.00
2019-04-02T17:43:07.811Z,32.00
2019-04-02T17:45:34.877Z,32.00
2019-04-02T17:48:06.812Z,32.10
2019-04-02T17:50:31.191Z,32.20
2019-04-02T17:52:58.279Z,32.10
2019-04-02T17:55:25.466Z,32.00
2019-04-02T17:58:04.323Z,32.20
2019-04-02T18:00:31.478Z,32.20
2019-04-02T18:02:58.571Z,32.20
2019-04-02T18:05:25.781Z,32.20
2019-04-02T18:07:59.228Z,32.00
2019-04-02T18:10:26.477Z,32.10
2019-04-02T18:13:04.044Z,31.90
2019-04-02T18:15:31.863Z,31.80
2019-04-02T18:18:01.077Z,31.70
2019-04-02T18:20:28.175Z,31.80
2019-04-02T18:22:55.437Z,31.70
2019-04-02T18:25:22.584Z,31.80
2019-04-02T18:27:49.719Z,31.70
2019-04-02T18:30:18.173Z,31.70
2019-04-02T18:32:45.746Z,31.70
2019-04-02T18:35:12.852Z,31.80
2019-04-02T18:37:39.969Z,31.80
2019-04-02T18:40:30.187Z,31.70
2019-04-02T18:42:47.512Z,31.70
2019-04-02T18:45:14.562Z,31.70
2019-04-02T18:47:41.680Z,31.70
2019-04-02T18:50:11.752Z,31.70
2019-04-02T18:52:41.807Z,31.70
2019-04-02T18:55:09.146Z,31.60
2019-04-02T18:57:38.446Z,31.60
2019-04-02T19:00:05.750Z,31.70
2019-04-02T19:02:32.985Z,31.60
2019-04-02T19:05:00.390Z,31.70
2019-04-02T19:07:30.052Z,31.60
2019-04-02T19:10:12.638Z,31.70
2019-04-02T19:12:34.555Z,31.60
2019-04-02T19:15:01.704Z,31.50
2019-04-02T19:17:29.385Z,31.60
2019-04-02T19:19:56.448Z,31.60
2019-04-02T19:22:23.611Z,31.60
2019-04-02T19:24:50.761Z,31.70
2019-04-02T19:27:17.825Z,31.80
2019-04-02T19:29:44.953Z,31.70
2019-04-02T19:32:13.818Z,31.70
2019-04-02T19:34:42.834Z,31.70
2019-04-02T19:37:09.987Z,31.70
2019-04-02T19:39:37.155Z,31.70
2019-04-02T19:42:04.214Z,31.70
2019-04-02T19:44:31.360Z,31.70
2019-04-02T19:46:58.789Z,31.80
2019-04-02T19:49:27.856Z,31.70
2019-04-02T19:51:54.817Z,31.70
2019-04-02T19:54:24.692Z,31.80
2019-04-02T19:56:54.169Z,31.80
2019-04-02T19:59:23.775Z,31.70
2019-04-02T20:01:51.965Z,31.80
2019-04-02T20:04:19.114Z,31.80
2019-04-02T20:06:46.250Z,31.80
2019-04-02T20:09:13.403Z,31.70
2019-04-02T20:11:42.158Z,31.60
2019-04-02T20:14:09.597Z,31.50
2019-04-02T20:16:39.634Z,31.50
2019-04-02T20:19:06.908Z,31.60
2019-04-02T20:21:36.980Z,31.40
2019-04-02T20:24:06.768Z,31.50
2019-04-02T20:26:50.161Z,31.50
2019-04-02T20:29:17.350Z,32.20
2019-04-02T20:31:55.600Z,31.60
2019-04-02T20:34:28.774Z,31.50
2019-04-02T20:36:57.329Z,31.50
2019-04-02T20:39:29.630Z,31.50
2019-04-02T20:47:40.371Z,31.60
2019-04-02T20:50:08.506Z,31.70
2019-04-02T20:52:40.871Z,31.60
2019-04-02T20:55:11.115Z,31.60
2019-04-02T20:57:38.937Z,31.70
2019-04-02T21:00:08.479Z,31.60
2019-04-02T21:02:36.480Z,31.60
2019-04-02T21:05:03.727Z,31.50
2019-04-02T21:07:31.283Z,31.50
2019-04-02T21:09:58.978Z,31.50
2019-04-02T21:12:27.953Z,31.50
2019-04-02T21:14:56.806Z,31.60
2019-04-02T21:17:27.303Z,31.50
2019-04-02T21:19:57.368Z,31.50
2019-04-02T21:22:24.489Z,31.50
2019-04-02T21:24:51.767Z,31.40
2019-04-02T21:27:21.937Z,31.60
2019-04-02T21:29:49.304Z,31.50
2019-04-02T21:32:16.507Z,31.50
2019-04-02T21:34:46.749Z,31.50
2019-04-02T21:37:13.890Z,31.30
2019-04-02T21:39:43.991Z,31.40
2019-04-02T21:42:11.117Z,31.40
2019-04-02T21:44:38.444Z,31.30
2019-04-02T21:47:07.163Z,31.40
2019-04-02T21:49:37.037Z,31.40
2019-04-02T21:52:07.138Z,31.50
2019-04-02T21:54:41.991Z,31.40
2019-04-02T21:57:15.273Z,31.40
2019-04-02T21:59:48.339Z,31.40
2019-04-02T22:02:21.114Z,31.30
2019-04-02T22:04:48.192Z,31.20
2019-04-02T22:07:15.332Z,31.40
2019-04-02T22:09:42.834Z,31.30
2019-04-02T22:12:15.775Z,31.30
2019-04-02T22:14:43.097Z,31.20
2019-04-02T22:17:13.534Z,31.30
2019-04-02T22:19:42.790Z,31.20
2019-04-02T22:22:13.243Z,31.40
2019-04-02T22:24:42.845Z,31.30
2019-04-02T22:27:10.172Z,31.30
2019-04-02T22:29:42.378Z,31.30
2019-04-02T22:32:14.981Z,31.30
2019-04-02T22:34:49.585Z,31.30
2019-04-02T22:40:24.381Z,31.20
2019-04-02T22:42:49.406Z,31.20
2019-04-02T22:45:24.406Z,31.30
2019-04-02T22:47:53.907Z,31.20
2019-04-02T22:50:20.799Z,31.20
2019-04-02T22:52:47.946Z,31.20
2019-04-02T22:55:18.818Z,31.30
2019-04-02T22:57:48.190Z,31.20
2019-04-02T23:00:20.946Z,31.20
2019-04-02T23:02:54.379Z,31.30
2019-04-02T23:05:21.459Z,31.30
2019-04-02T23:08:05.068Z,31.30
2019-04-02T23:10:33.446Z,31.20
2019-04-02T23:13:04.406Z,31.30
2019-04-02T23:15:31.545Z,31.20
2019-04-02T23:17:58.671Z,31.20
2019-04-02T23:20:25.807Z,31.20
2019-04-02T23:22:53.404Z,31.20
2019-04-02T23:25:20.758Z,31.20
2019-04-02T23:28:02.072Z,31.10
2019-04-02T23:30:30.885Z,31.20
2019-04-02T23:32:59.144Z,31.10
2019-04-02T23:35:27.365Z,31.10
2019-04-02T23:37:59.018Z,31.10
2019-04-02T23:40:26.950Z,31.20
2019-04-02T23:42:54.069Z,31.20
2019-04-02T23:45:21.125Z,31.10
2019-04-02T23:47:48.232Z,31.10
2019-04-02T23:50:15.303Z,31.10
2019-04-02T23:52:42.368Z,31.10
2019-04-02T23:55:09.495Z,31.10
2019-04-02T23:57:36.592Z,31.00
